Latest Weather Observations for Katanning RS

IDW60801

Issued at 9:32 pm WST Tuesday 1 September 2015 (issued every 30 minutes, with the page automatically refreshed every 10 minutes)

About weather observations | Map of weather stations | Latest weather observations for WA | Other Formats
Station Details ID: 010916 Name: KATANNING Lat: -33.69 Lon: 117.61 Height: 320.0 m
Data from the previous 72 hours. | See also: Recent months at Katanning RS
Date/Time
WST
Temp
°C
App
Temp
°C
Dew
Point
Rel
Hum
%
Delta-T
°C
Wind Press
QNH
hPa
Press
MSL
hPa
Rain
since 9 am
mm
Dir
 
Spd
km/h
Gust
km/h
Spd
kts
Gust
kts
01/09:30pm 4.3 0.9 -0.3 72 1.7 SSW 7 9 4 5 1026.0 1026.0 1.4
01/09:00pm 4.8 1.5 -0.2 70 1.9 S 7 11 4 6 1025.6 1025.6 1.4
01/08:30pm 4.3 0.9 -0.7 70 1.9 SSW 7 9 4 5 1025.2 1025.3 1.4
01/08:00pm 4.9 1.6 -1.3 64 2.3 S 6 7 3 4 1024.9 1025.0 1.4
01/07:30pm 5.1 1.6 -1.1 64 2.3 SSW 7 9 4 5 1024.9 1025.0 1.4
01/07:00pm 5.8 2.0 -0.7 63 2.5 S 9 11 5 6 1024.7 1024.8 1.4
01/06:30pm 5.9 2.7 -0.6 63 2.5 S 6 15 3 8 1024.5 1024.6 1.4
01/06:00pm 6.0 3.0 1.9 75 1.7 SSW 7 11 4 6 1024.1 1024.1 1.4
01/05:30pm 7.7 4.5 2.8 71 2.1 SW 9 13 5 7 1023.7 1023.7 1.4
01/05:00pm 8.3 3.8 2.1 65 2.6 SSW 15 22 8 12 1023.1 1023.1 1.4
01/04:30pm 8.6 3.4 2.2 64 2.7 SSW 19 28 10 15 1022.9 1022.9 1.4
01/04:00pm 9.0 4.5 4.4 73 2.1 SSW 17 24 9 13 1022.5 1022.5 1.4
01/03:30pm 7.6 0.8 3.3 74 1.9 S 28 41 15 22 1022.3 1022.3 1.4
01/03:00pm 9.9 4.2 2.7 61 3.1 SSW 22 33 12 18 1021.9 1022.0 1.2
01/02:33pm 8.7 1.8 2.5 65 2.7 S 28 48 15 26 1021.8 1021.9 1.2
01/02:30pm 9.2 3.0 2.3 62 3.0 S 24 48 13 26 1021.7 1021.8 1.2
01/02:00pm 9.6 4.7 4.0 68 2.5 S 19 28 10 15 1021.5 1021.5 1.2
01/01:30pm 8.1 2.0 4.7 79 1.5 S 26 39 14 21 1021.6 1021.6 1.2
01/01:26pm 7.4 0.7 3.6 77 1.7 S 28 48 15 26 1021.6 1021.6 1.2
01/01:00pm 10.4 4.5 3.9 64 2.9 SW 24 35 13 19 1021.2 1021.2 1.2
01/12:30pm 9.4 3.6 4.2 70 2.3 SSW 24 37 13 20 1021.3 1021.3 1.2
01/12:00pm 6.5 0.1 3.1 79 1.4 SSW 26 37 14 20 1021.6 1021.6 1.2
01/11:30am 8.7 3.5 3.5 70 2.3 S 20 30 11 16 1021.6 1021.6 0.0
01/11:00am 9.4 3.2 2.3 61 3.0 SSW 24 44 13 24 1021.5 1021.5 0.0
01/10:30am 9.2 3.1 2.8 64 2.8 SSW 24 37 13 20 1021.5 1021.5 0.0
01/10:00am 8.3 2.1 1.9 64 2.7 SSW 24 37 13 20 1021.4 1021.4 0.0
01/09:30am 7.8 1.6 2.1 67 2.4 SSW 24 33 13 18 1021.3 1021.3 0.0
01/09:00am 7.3 2.1 2.6 72 2.0 SSW 19 30 10 16 1021.1 1021.1 6.8
01/08:30am 5.8 0.9 1.9 76 1.6 SW 17 24 9 13 1020.8 1020.8 6.8
01/08:00am 4.9 0.3 1.7 80 1.3 WSW 15 26 8 14 1020.3 1020.3 6.8
01/07:30am 3.6 -1.4 1.3 85 0.9 WSW 17 24 9 13 1020.0 1020.1 6.8
01/07:00am 2.4 -2.7 0.5 87 0.7 WSW 17 20 9 11 1019.6 1019.7 6.8
01/06:30am 2.3 -2.8 0.5 88 0.7 WSW 17 20 9 11 1019.2 1019.3 6.8
01/06:00am 2.6 -2.1 0.8 88 0.7 WSW 15 20 8 11 1018.8 1019.0 6.8
01/05:30am 2.5 -2.2 0.6 87 0.7 W 15 19 8 10 1018.5 1018.7 6.8
01/05:00am 2.7 -2.0 0.6 86 0.8 WSW 15 20 8 11 1017.9 1018.0 6.8
01/04:30am 2.8 -1.6 0.4 84 0.9 WSW 13 19 7 10 1017.7 1017.8 6.8
01/04:00am 3.1 -1.3 0.3 82 1.1 WSW 13 19 7 10 1017.5 1017.6 6.8
01/03:30am 3.2 -1.5 0.6 83 1.0 WSW 15 20 8 11 1017.2 1017.3 6.8
01/03:00am 3.6 -1.5 1.0 83 1.0 WSW 17 24 9 13 1017.2 1017.3 6.8
01/02:30am 3.5 -1.2 1.1 84 0.9 WSW 15 20 8 11 1017.2 1017.3 6.8
01/02:00am 3.7 -0.9 1.3 84 0.9 WSW 15 20 8 11 1017.2 1017.3 6.8
01/01:30am 3.9 -0.4 1.3 83 1.0 WSW 13 19 7 10 1017.3 1017.4 6.8
01/01:00am 4.1 -0.9 1.5 83 1.0 WSW 17 22 9 12 1017.0 1017.1 6.8
01/12:30am 4.5 -0.5 1.5 81 1.2 WSW 17 22 9 12 1016.9 1017.0 6.8
01/12:00am 5.0 -0.2 2.5 84 1.0 WSW 19 28 10 15 1017.2 1017.3 6.8
 
Date/Time
WST
Temp
°C
App
Temp
°C
Dew
Point
Rel
Hum
%
Delta-T
°C
Wind Press
QNH
hPa
Press
MSL
hPa
Rain
since 9 am
mm
Dir
 
Spd
km/h
Gust
km/h
Spd
kts
Gust
kts
31/11:30pm 5.1 0.2 2.1 81 1.2 WSW 17 24 9 13 1017.0 1017.1 6.6
31/11:00pm 5.4 -0.3 2.6 82 1.2 WSW 22 28 12 15 1016.8 1016.9 6.6
31/10:30pm 5.7 0.3 2.5 80 1.3 WSW 20 30 11 16 1016.7 1016.8 6.6
31/10:00pm 5.9 0.5 2.5 79 1.4 SW 20 33 11 18 1016.5 1016.6 6.6
31/09:30pm 6.6 0.5 3.0 78 1.5 SW 24 33 13 18 1016.5 1016.6 6.6
31/09:00pm 6.8 1.8 3.8 81 1.3 WSW 19 32 10 17 1016.5 1016.6 6.6
31/08:30pm 6.3 1.7 3.8 84 1.1 WSW 17 22 9 12 1016.0 1016.1 6.6
31/08:00pm 6.5 2.4 4.2 85 1.0 W 15 20 8 11 1015.8 1015.9 6.6
31/07:30pm 6.7 2.9 4.0 83 1.2 W 13 19 7 10 1015.3 1015.5 6.6
31/07:00pm 7.2 3.5 4.3 82 1.3 WSW 13 20 7 11 1015.1 1015.2 6.6
31/06:30pm 7.3 3.2 4.4 82 1.3 WSW 15 24 8 13 1015.0 1015.1 6.6
31/06:00pm 7.6 3.2 4.7 82 1.3 WSW 17 28 9 15 1014.7 1014.8 6.6
31/05:30pm 7.3 3.6 4.4 82 1.3 WSW 13 17 7 9 1014.5 1014.6 6.6
31/05:00pm 7.7 3.3 4.8 82 1.3 WSW 17 24 9 13 1014.2 1014.3 6.6
31/04:30pm 7.1 -0.5 3.7 79 1.5 WSW 33 65 18 35 1014.0 1014.1 6.4
31/04:26pm 7.8 0.7 3.3 73 2.0 WSW 30 65 16 35 1013.9 1014.0 5.8
31/04:25pm 8.5 1.8 3.4 70 2.2 WSW 28 65 15 35 1013.8 1013.9 5.6
31/04:00pm 10.5 5.1 4.6 67 2.7 WSW 22 32 12 17 1013.4 1013.5 5.4
31/03:30pm 11.1 7.0 6.3 72 2.3 WSW 17 24 9 13 1012.8 1012.9 5.4
31/03:00pm 9.7 5.2 6.2 79 1.6 WSW 19 24 10 13 1013.3 1013.4 5.4
31/02:30pm 9.4 4.1 6.7 83 1.3 WSW 24 37 13 20 1013.3 1013.4 5.4
31/02:18pm 9.4 3.2 6.3 81 1.5 W 28 46 15 25 1013.3 1013.4 5.2
31/02:00pm 10.3 5.6 7.7 84 1.3 W 22 33 12 18 1013.1 1013.2 5.0
31/01:30pm 9.1 4.6 6.9 86 1.0 WNW 20 32 11 17 1013.4 1013.5 4.6
31/01:12pm 8.5 1.3 5.8 83 1.2 WNW 33 52 18 28 1013.6 1013.7 3.2
31/01:05pm 8.9 0.8 5.1 77 1.7 W 37 57 20 31 1013.7 1013.8 2.2
31/01:00pm 10.5 4.2 5.9 73 2.2 WNW 28 46 15 25 1013.7 1013.8 0.8
31/12:30pm 12.7 6.9 6.1 64 3.2 NW 26 37 14 20 1013.5 1013.6 0.2
31/12:00pm 11.6 6.0 7.1 74 2.2 WNW 26 39 14 21 1014.4 1014.5 0.2
31/11:30am 14.3 9.7 6.6 60 3.8 NW 20 35 11 19 1014.6 1014.7 0.0
31/11:00am 12.9 8.2 5.1 59 3.7 NW 19 32 10 17 1015.2 1015.3 0.0
31/10:30am 13.4 8.5 7.0 65 3.2 NNW 22 35 12 19 1015.8 1015.9 0.0
31/10:00am 12.0 7.4 6.5 69 2.7 NW 20 28 11 15 1016.3 1016.4 0.0
31/09:30am 10.5 6.2 6.8 78 1.8 NNW 19 26 10 14 1016.8 1016.9 0.0
31/09:00am 8.9 5.2 6.2 83 1.3 NNW 15 20 8 11 1017.1 1017.2 0.0
31/08:30am 8.1 5.0 5.6 84 1.1 NNW 11 20 6 11 1017.4 1017.5 0.0
31/08:00am 7.8 5.1 5.4 85 1.1 NW 9 13 5 7 1017.6 1017.7 0.0
31/07:30am 7.3 4.1 5.1 86 1.0 NNW 11 13 6 7 1017.7 1017.8 0.0
31/07:00am 6.4 4.0 4.2 86 1.0 NW 6 9 3 5 1017.5 1017.6 0.0
31/06:30am 6.5 3.5 4.2 85 1.0 NNW 9 13 5 7 1017.4 1017.5 0.0
31/06:00am 7.1 4.2 4.4 83 1.2 NW 9 17 5 9 1017.5 1017.6 0.0
31/05:30am 7.3 3.6 4.4 82 1.3 WNW 13 20 7 11 1017.8 1017.9 0.0
31/05:00am 7.0 4.6 4.3 83 1.2 WNW 6 7 3 4 1017.7 1017.8 0.0
31/04:30am 6.2 3.5 3.7 84 1.1 NW 7 9 4 5 1017.7 1017.8 0.0
31/04:00am 5.7 3.1 3.0 83 1.1 NNW 6 7 3 4 1017.8 1017.9 0.0
31/03:30am 5.8 3.2 3.1 83 1.1 NNW 6 7 3 4 1018.0 1018.2 0.0
31/03:00am 5.9 4.0 3.1 82 1.2 NW 2 6 1 3 1018.3 1018.5 0.0
31/02:30am 6.0 4.0 2.5 78 1.5 W 2 4 1 2 1018.5 1018.7 0.0
31/02:00am 6.9 4.8 4.0 82 1.3 W 4 6 2 3 1018.8 1019.0 0.0
31/01:30am 7.3 4.7 4.3 81 1.3 WSW 7 9 4 5 1019.3 1019.4 0.0
31/01:00am 7.1 4.1 3.9 80 1.4 WSW 9 11 5 6 1019.4 1019.5 0.0
31/12:30am 6.8 5.5 4.1 83 1.2 CALM 0 4 0 2 1019.4 1019.5 0.0
31/12:00am 7.3 4.7 4.1 80 1.4 WSW 7 7 4 4 1019.7 1019.8 0.0
 
Date/Time
WST
Temp
°C
App
Temp
°C
Dew
Point
Rel
Hum
%
Delta-T
°C
Wind Press
QNH
hPa
Press
MSL
hPa
Rain
since 9 am
mm
Dir
 
Spd
km/h
Gust
km/h
Spd
kts
Gust
kts
30/11:30pm 7.5 5.9 4.3 80 1.4 SW 2 7 1 4 1019.9 1020.0 0.0
30/11:00pm 6.9 5.6 3.9 81 1.3 CALM 0 0 0 0 1020.3 1020.4 0.0
30/10:30pm 7.4 4.8 4.2 80 1.4 SW 7 9 4 5 1020.5 1020.6 0.0
30/10:00pm 7.8 4.9 4.9 82 1.3 WSW 9 11 5 6 1020.5 1020.6 0.0
30/09:30pm 7.0 3.9 3.6 79 1.5 SW 9 11 5 6 1020.6 1020.7 0.0
30/09:00pm 7.8 5.2 4.2 78 1.6 SW 7 9 4 5 1020.9 1021.1 0.0
30/08:30pm 8.2 5.3 4.8 79 1.5 SW 9 11 5 6 1020.8 1021.0 0.0
30/08:00pm 9.4 7.9 5.0 74 2.0 SW 2 4 1 2 1020.6 1020.7 0.0
30/07:30pm 8.8 7.6 4.4 74 2.0 CALM 0 0 0 0 1020.4 1020.5 0.0
30/07:00pm 9.9 8.0 5.1 72 2.2 SW 4 6 2 3 1020.2 1020.3 0.0
30/06:30pm 10.8 9.0 5.3 69 2.6 SW 4 6 2 3 1020.2 1020.3 0.0
30/06:00pm 11.1 8.9 5.4 68 2.7 SW 6 7 3 4 1020.0 1020.1 0.0
30/05:30pm 11.9 9.6 5.5 65 3.0 SW 7 9 4 5 1019.9 1020.0 0.0
30/05:00pm 12.4 8.9 5.3 62 3.3 SW 13 17 7 9 1019.7 1019.8 0.0
30/04:30pm 13.1 10.3 5.0 58 3.8 SW 9 15 5 8 1019.5 1019.6 0.0
30/04:00pm 13.4 10.4 4.0 53 4.3 W 9 17 5 9 1019.3 1019.4 0.0
30/03:30pm 14.6 10.9 4.6 51 4.7 WSW 13 19 7 10 1019.2 1019.3 0.0
30/03:00pm 14.3 11.2 5.7 56 4.1 WSW 11 19 6 10 1019.1 1019.2 0.0
30/02:30pm 13.4 9.4 5.1 57 3.9 SW 15 22 8 12 1018.8 1019.0 0.0
30/02:00pm 13.7 10.0 4.3 53 4.4 WSW 13 19 7 10 1018.6 1018.8 0.0
30/01:30pm 13.4 9.2 4.0 53 4.3 WNW 15 22 8 12 1018.6 1018.8 0.0
30/01:00pm 14.2 10.5 4.2 51 4.7 W 13 20 7 11 1018.8 1019.0 0.0
30/12:30pm 12.7 7.5 3.4 53 4.2 WSW 20 24 11 13 1019.3 1019.4 0.0
30/12:00pm 13.5 8.2 3.0 49 4.7 WSW 20 28 11 15 1019.3 1019.4 0.0
30/11:30am 13.1 7.6 4.0 54 4.2 WSW 22 32 12 17 1019.5 1019.6 0.0
30/11:00am 12.1 7.1 3.6 56 3.8 WSW 19 32 10 17 1019.5 1019.6 0.0
30/10:30am 12.9 8.2 5.3 60 3.6 WSW 19 28 10 15 1019.2 1019.3 0.0
30/10:00am 13.0 9.4 6.8 66 3.0 SW 15 20 8 11 1019.1 1019.2 0.0
30/09:30am 11.6 7.5 6.3 70 2.5 WSW 17 26 9 14 1018.8 1019.0 0.0
30/09:00am 11.2 8.1 7.3 77 1.9 WSW 13 19 7 10 1018.7 1018.9 3.2
30/08:30am 10.9 7.5 7.6 80 1.6 WSW 15 22 8 12 1018.4 1018.6 3.2
30/08:00am 10.4 7.9 8.0 85 1.2 W 11 17 6 9 1018.0 1018.2 3.2
30/07:30am 9.3 6.6 7.3 87 1.0 W 11 17 6 9 1017.4 1017.5 3.2
30/07:00am 9.1 6.8 7.4 89 0.8 W 9 11 5 6 1016.8 1016.9 3.2
30/06:30am 8.1 5.9 6.2 88 0.9 W 7 9 4 5 1016.1 1016.2 3.2
30/06:00am 8.8 6.4 6.9 88 0.9 W 9 15 5 8 1015.5 1015.7 3.2
30/05:30am 9.5 6.9 7.6 88 0.9 W 11 19 6 10 1015.2 1015.3 3.2
30/05:00am 9.8 6.8 7.9 88 0.9 W 13 22 7 12 1014.8 1014.9 3.2
30/04:30am 9.8 8.0 7.9 88 0.9 WNW 7 13 4 7 1014.5 1014.6 3.2
30/04:00am 10.2 7.7 8.1 87 1.0 W 11 17 6 9 1014.2 1014.3 3.2
30/03:30am 10.7 8.7 8.5 86 1.1 WNW 9 13 5 7 1013.9 1014.0 3.2
30/03:00am 10.9 7.3 8.3 84 1.3 W 17 22 9 12 1013.8 1013.9 3.2
30/02:30am 11.2 5.7 9.1 87 1.1 W 28 39 15 21 1013.6 1013.7 3.2
30/02:27am 11.0 5.8 8.9 87 1.1 W 26 39 14 21 1013.7 1013.8 3.0
30/02:00am 11.0 9.5 9.1 88 1.0 NNW 7 11 4 6 1013.4 1013.5 2.6
30/01:30am 11.2 9.3 9.1 87 1.1 NW 9 13 5 7 1013.2 1013.3 2.4
30/01:00am 11.5 9.3 9.4 87 1.1 NW 11 15 6 8 1013.4 1013.5 1.8
30/12:30am 11.8 10.1 9.7 87 1.1 NW 9 17 5 9 1013.3 1013.4 1.2
30/12:00am 11.9 9.8 9.8 87 1.1 NW 11 17 6 9 1013.3 1013.4 1.2
 
Date/Time
WST
Temp
°C
App
Temp
°C
Dew
Point
Rel
Hum
%
Delta-T
°C
Wind Press
QNH
hPa
Press
MSL
hPa
Rain
since 9 am
mm
Dir
 
Spd
km/h
Gust
km/h
Spd
kts
Gust
kts
29/11:30pm 11.7 8.4 9.6 87 1.1 WNW 17 26 9 14 1013.3 1013.4 1.2
29/11:00pm 12.3 10.4 10.5 89 0.9 WNW 11 19 6 10 1013.2 1013.3 0.4
29/10:30pm 12.2 10.6 10.1 87 1.1 W 9 13 5 7 1013.2 1013.3 0.0
29/10:00pm 12.5 9.7 10.0 85 1.3 W 15 22 8 12 1013.2 1013.3 0.0

Other Formats:

Comma delimited format used in spreadsheet applications
http://www.bom.gov.au/fwo/IDW60801/IDW60801.94641.axf

JavaScript Object Notation format (JSON) in row-major order
http://www.bom.gov.au/fwo/IDW60801/IDW60801.94641.json